createdAt,value
2023-05-10T00:02:27.636Z,100424.84
2023-05-10T00:04:54.766Z,100425.49
2023-05-10T00:07:21.807Z,100429.34
2023-05-10T00:09:48.853Z,100426.82
2023-05-10T00:12:15.828Z,100426.77
2023-05-10T00:14:43.497Z,100420.84
2023-05-10T00:17:10.467Z,100421.90
2023-05-10T00:19:37.541Z,100424.23
2023-05-10T00:22:04.575Z,100421.72
2023-05-10T00:24:31.692Z,100422.10
2023-05-10T00:26:58.784Z,100415.52
2023-05-10T00:29:25.977Z,100418.47
2023-05-10T00:31:53.649Z,100419.18
2023-05-10T00:34:20.789Z,100417.63
2023-05-10T00:36:47.890Z,100415.51
2023-05-10T00:39:15.061Z,100413.99
2023-05-10T00:41:42.040Z,100414.73
2023-05-10T00:44:09.220Z,100412.23
2023-05-10T00:46:36.336Z,100409.15
2023-05-10T00:49:03.418Z,100409.34
2023-05-10T00:51:30.658Z,100409.33
2023-05-10T00:53:57.751Z,100411.68
2023-05-10T00:56:25.824Z,100409.77
2023-05-10T00:58:52.924Z,100408.14
2023-05-10T01:01:20.770Z,100410.11
2023-05-10T01:03:48.491Z,100410.86
2023-05-10T01:06:16.220Z,100412.47
2023-05-10T01:08:43.222Z,100418.41
2023-05-10T01:11:10.696Z,100419.54
2023-05-10T01:13:39.301Z,100418.98
2023-05-10T01:16:07.917Z,100419.99
2023-05-10T01:18:40.784Z,100415.86
2023-05-10T01:21:34.129Z,100412.20
2023-05-10T01:24:04.106Z,100413.94
2023-05-10T01:26:52.893Z,100414.36
2023-05-10T01:29:45.004Z,100424.16
2023-05-10T01:32:31.139Z,100418.65
2023-05-10T01:35:04.171Z,100416.22
2023-05-10T01:37:52.236Z,100418.75
2023-05-10T01:40:48.748Z,100421.17
2023-05-10T01:43:28.060Z,100415.15
2023-05-10T01:46:13.682Z,100413.01
2023-05-10T01:48:48.040Z,100407.48
2023-05-10T01:51:20.684Z,100407.39
2023-05-10T01:53:47.694Z,100405.98
2023-05-10T01:56:16.914Z,100404.57
2023-05-10T01:58:46.790Z,100407.13
2023-05-10T02:01:14.374Z,100404.88
2023-05-10T02:03:41.661Z,100405.55
2023-05-10T02:06:08.781Z,100409.65
2023-05-10T02:08:35.934Z,100402.16
2023-05-10T02:11:04.885Z,100399.32
2023-05-10T02:13:32.926Z,100397.41
2023-05-10T02:15:59.897Z,100397.09
2023-05-10T02:18:27.129Z,100399.34
2023-05-10T02:20:54.527Z,100402.00
2023-05-10T02:23:21.764Z,100405.20
2023-05-10T02:25:49.254Z,100406.33
2023-05-10T02:28:16.589Z,100404.27
2023-05-10T02:30:43.606Z,100405.02
2023-05-10T02:33:11.373Z,100407.02
2023-05-10T02:35:38.928Z,100410.67
2023-05-10T02:38:06.079Z,100405.89
2023-05-10T02:40:33.091Z,100404.67
2023-05-10T02:43:00.415Z,100407.88
2023-05-10T02:45:29.491Z,100405.61
2023-05-10T02:47:57.059Z,100406.64
2023-05-10T02:50:24.099Z,100406.80
2023-05-10T02:52:53.148Z,100405.06
2023-05-10T02:55:21.449Z,100405.90
2023-05-10T02:58:02.628Z,100405.70
2023-05-10T03:00:29.869Z,100407.45
2023-05-10T03:02:57.054Z,100409.73
2023-05-10T03:05:24.591Z,100409.73
2023-05-10T03:07:52.632Z,100410.09
2023-05-10T03:10:19.872Z,100413.38
2023-05-10T03:13:16.441Z,100411.61
2023-05-10T03:15:48.274Z,100411.85
2023-05-10T03:18:23.691Z,100412.17
2023-05-10T03:20:52.061Z,100413.39
2023-05-10T03:23:19.261Z,100413.99
2023-05-10T03:25:47.492Z,100415.89
2023-05-10T03:28:14.753Z,100414.54
2023-05-10T03:30:42.227Z,100410.44
2023-05-10T03:33:11.991Z,100409.08
2023-05-10T03:35:41.196Z,100410.87
2023-05-10T03:38:08.488Z,100415.23
2023-05-10T03:40:35.654Z,100418.24
2023-05-10T03:43:02.707Z,100422.21
2023-05-10T03:45:29.837Z,100416.23
2023-05-10T03:47:57.915Z,100417.95
2023-05-10T03:50:25.492Z,100417.50
2023-05-10T03:52:54.770Z,100422.38
2023-05-10T03:55:23.612Z,100423.08
2023-05-10T03:57:51.480Z,100421.11
2023-05-10T04:00:19.467Z,100424.58
2023-05-10T04:02:48.183Z,100425.79
2023-05-10T04:05:19.265Z,100421.59
2023-05-10T04:07:46.310Z,100421.73
2023-05-10T04:10:13.719Z,100419.80
2023-05-10T04:12:41.109Z,100421.33
2023-05-10T04:15:09.077Z,100424.71
2023-05-10T04:17:36.074Z,100425.66
2023-05-10T04:20:03.154Z,100424.67
2023-05-10T04:22:30.273Z,100426.48
2023-05-10T04:24:57.411Z,100424.22
2023-05-10T04:27:24.580Z,100423.29
2023-05-10T04:29:52.035Z,100426.35
2023-05-10T04:32:19.217Z,100424.43
2023-05-10T04:34:46.238Z,100422.38
2023-05-10T04:37:13.392Z,100421.66
2023-05-10T04:39:42.278Z,100421.66
2023-05-10T04:42:09.776Z,100422.39
2023-05-10T04:44:37.388Z,100424.23
2023-05-10T04:47:04.664Z,100423.35
2023-05-10T04:49:31.842Z,100413.98
2023-05-10T04:51:58.971Z,100416.19
2023-05-10T04:54:26.209Z,100415.89
2023-05-10T04:56:53.220Z,100411.20
2023-05-10T04:59:20.247Z,100414.65
2023-05-10T05:01:47.428Z,100414.55
2023-05-10T05:04:15.649Z,100416.26
2023-05-10T05:06:42.707Z,100415.67
2023-05-10T05:09:11.345Z,100420.46
2023-05-10T05:11:38.440Z,100420.39
2023-05-10T05:14:05.791Z,100416.95
2023-05-10T05:16:33.607Z,100416.34
2023-05-10T05:19:01.812Z,100416.33
2023-05-10T05:21:29.912Z,100410.92
2023-05-10T05:23:56.963Z,100410.68
2023-05-10T05:26:24.832Z,100412.33
2023-05-10T05:31:22.159Z,100416.86
2023-05-10T05:33:49.232Z,100415.36
2023-05-10T05:36:16.653Z,100414.12
2023-05-10T05:38:44.278Z,100412.42
2023-05-10T05:41:11.426Z,100404.04
2023-05-10T05:43:38.735Z,100407.39
2023-05-10T05:46:06.189Z,100406.98
2023-05-10T05:48:33.219Z,100407.00
2023-05-10T05:51:00.337Z,100404.60
2023-05-10T05:53:27.996Z,100405.11
2023-05-10T05:55:55.902Z,100403.42
2023-05-10T05:58:23.545Z,100399.14
2023-05-10T06:00:50.914Z,100398.15
2023-05-10T06:03:18.109Z,100400.52
2023-05-10T06:05:45.462Z,100397.48
2023-05-10T06:08:12.609Z,100396.48
2023-05-10T06:10:40.022Z,100398.26
2023-05-10T06:13:07.147Z,100395.58
2023-05-10T06:15:34.563Z,100392.80
2023-05-10T06:18:02.151Z,100396.11
2023-05-10T06:20:29.307Z,100391.52
2023-05-10T06:22:56.320Z,100391.05
2023-05-10T06:25:23.472Z,100391.96
2023-05-10T06:27:53.614Z,100392.05
2023-05-10T06:30:24.200Z,100391.20
2023-05-10T06:33:59.800Z,100389.81
2023-05-10T06:36:27.694Z,100392.59
2023-05-10T06:38:54.676Z,100386.11
2023-05-10T06:41:24.586Z,100392.91
2023-05-10T06:43:51.980Z,100395.90
2023-05-10T06:46:19.181Z,100400.52
2023-05-10T06:48:46.408Z,100403.95
2023-05-10T06:51:13.694Z,100400.30
2023-05-10T06:53:40.816Z,100399.27
2023-05-10T06:56:08.284Z,100395.83
2023-05-10T06:58:35.275Z,100394.63
2023-05-10T07:01:06.248Z,100396.72
2023-05-10T07:03:33.422Z,100396.36
2023-05-10T07:06:04.971Z,100392.03
2023-05-10T07:08:32.735Z,100386.45
2023-05-10T07:11:08.354Z,100386.33
2023-05-10T07:13:35.745Z,100387.11
2023-05-10T07:16:03.364Z,100388.03
2023-05-10T07:18:30.663Z,100390.48
2023-05-10T07:20:58.427Z,100386.96
2023-05-10T07:23:25.621Z,100387.99
2023-05-10T07:25:53.684Z,100387.79
2023-05-10T07:28:21.312Z,100383.94
2023-05-10T07:30:48.441Z,100382.62
2023-05-10T07:33:15.830Z,100385.69
2023-05-10T07:35:43.563Z,100386.37
2023-05-10T07:38:12.241Z,100386.05
2023-05-10T07:40:40.517Z,100383.07
2023-05-10T07:43:07.627Z,100382.61
2023-05-10T07:45:35.166Z,100380.64
2023-05-10T07:48:02.296Z,100379.22
2023-05-10T07:50:29.873Z,100376.40
2023-05-10T07:52:57.657Z,100372.79
2023-05-10T07:55:24.812Z,100375.81
2023-05-10T07:57:51.908Z,100371.95
2023-05-10T08:00:19.497Z,100370.77
2023-05-10T08:02:46.991Z,100370.64
2023-05-10T08:05:14.850Z,100375.88
2023-05-10T08:07:41.849Z,100371.50
2023-05-10T08:10:09.970Z,100368.34
2023-05-10T08:12:37.036Z,100368.56
2023-05-10T08:15:04.748Z,100362.45
2023-05-10T08:17:32.120Z,100360.51
2023-05-10T08:19:59.150Z,100361.47
2023-05-10T08:22:26.117Z,100363.35
2023-05-10T08:24:53.476Z,100359.05
2023-05-10T08:27:20.766Z,100354.80
2023-05-10T08:29:50.343Z,100354.52
2023-05-10T08:32:18.574Z,100353.24
2023-05-10T08:34:45.451Z,100349.54
2023-05-10T08:37:14.498Z,100355.81
2023-05-10T08:39:42.249Z,100356.20
2023-05-10T08:42:09.530Z,100358.35
2023-05-10T08:44:37.579Z,100360.28
2023-05-10T08:47:06.975Z,100363.60
2023-05-10T08:49:34.756Z,100363.69
2023-05-10T08:52:05.159Z,100364.40
2023-05-10T08:54:33.423Z,100363.96
2023-05-10T08:57:00.900Z,100360.54
2023-05-10T08:59:32.184Z,100358.85
2023-05-10T09:02:00.187Z,100361.55
2023-05-10T09:04:27.476Z,100368.89
2023-05-10T09:06:55.065Z,100366.66
2023-05-10T09:09:22.366Z,100364.93
2023-05-10T09:11:49.395Z,100360.84
2023-05-10T09:14:16.439Z,100360.23
2023-05-10T09:16:43.902Z,100359.21
2023-05-10T09:19:11.560Z,100360.77
2023-05-10T09:21:39.484Z,100362.52
2023-05-10T09:24:08.236Z,100362.84
2023-05-10T09:26:36.805Z,100358.95
2023-05-10T09:29:04.175Z,100360.86
2023-05-10T09:31:56.062Z,100358.28
2023-05-10T09:34:33.439Z,100355.27
2023-05-10T09:37:02.594Z,100354.55
2023-05-10T09:39:38.902Z,100357.00
2023-05-10T09:42:10.114Z,100355.30
2023-05-10T09:44:38.028Z,100354.34
2023-05-10T09:47:04.919Z,100348.56
2023-05-10T09:49:32.075Z,100348.80
2023-05-10T09:52:06.679Z,100353.52
2023-05-10T09:54:34.327Z,100348.39
2023-05-10T09:57:02.027Z,100349.27
2023-05-10T09:59:29.608Z,100345.67
2023-05-10T10:01:57.737Z,100344.23
2023-05-10T10:04:24.998Z,100344.61
2023-05-10T10:07:04.952Z,100348.27
2023-05-10T10:09:32.523Z,100346.93
2023-05-10T10:12:01.122Z,100346.45
2023-05-10T10:14:28.701Z,100347.05
2023-05-10T10:17:06.675Z,100345.45
2023-05-10T10:19:36.884Z,100346.90
2023-05-10T10:22:04.455Z,100344.39
2023-05-10T10:24:31.716Z,100344.27
2023-05-10T10:27:11.178Z,100343.73
2023-05-10T10:30:29.378Z,100344.32
2023-05-10T10:33:27.961Z,100342.08
2023-05-10T10:35:56.815Z,100338.05
2023-05-10T10:38:24.028Z,100338.61
2023-05-10T10:41:04.432Z,100339.17
2023-05-10T10:43:31.696Z,100336.29
2023-05-10T10:46:13.064Z,100333.70
2023-05-10T10:48:40.431Z,100331.89
2023-05-10T10:51:07.446Z,100329.98
2023-05-10T10:53:34.929Z,100323.48
2023-05-10T10:56:10.518Z,100320.61
2023-05-10T10:58:39.090Z,100318.34
2023-05-10T11:01:17.041Z,100318.84
2023-05-10T11:04:16.375Z,100314.14
2023-05-10T11:06:43.882Z,100314.90
2023-05-10T11:09:12.758Z,100312.41
2023-05-10T11:11:53.385Z,100311.08
2023-05-10T11:14:23.713Z,100310.02
2023-05-10T11:16:50.940Z,100307.27
2023-05-10T11:19:19.178Z,100307.48
2023-05-10T11:25:47.869Z,100302.84
2023-05-10T11:28:14.994Z,100301.16
2023-05-10T11:30:42.936Z,100296.05
2023-05-10T11:33:10.868Z,100302.45
2023-05-10T11:35:41.068Z,100301.66
2023-05-10T11:38:11.008Z,100298.41
2023-05-10T11:40:38.377Z,100300.36
2023-05-10T11:43:07.212Z,100294.77
2023-05-10T11:45:34.625Z,100296.95
2023-05-10T11:48:01.945Z,100300.95
2023-05-10T11:50:29.298Z,100300.11
2023-05-10T11:52:57.404Z,100302.48
2023-05-10T11:55:25.487Z,100294.39
2023-05-10T11:57:55.962Z,100291.20
2023-05-10T12:00:23.135Z,100294.84
2023-05-10T12:02:50.513Z,100295.55
2023-05-10T12:05:17.823Z,100297.81
2023-05-10T12:07:44.905Z,100300.52
2023-05-10T12:10:16.135Z,100295.91
2023-05-10T12:12:48.542Z,100303.63
2023-05-10T12:15:23.460Z,100297.10
2023-05-10T12:17:51.308Z,100298.70
2023-05-10T12:20:20.012Z,100299.92
2023-05-10T12:22:48.804Z,100296.49
2023-05-10T12:25:15.955Z,100294.08
2023-05-10T12:30:37.141Z,100292.41
2023-05-10T12:33:12.212Z,100290.49
2023-05-10T12:35:47.705Z,100289.15
2023-05-10T12:38:39.399Z,100288.61
2023-05-10T12:41:08.120Z,100291.91
2023-05-10T12:43:35.850Z,100288.59
2023-05-10T12:46:10.300Z,100286.92
2023-05-10T12:48:38.047Z,100284.83
2023-05-10T12:51:06.107Z,100282.42
2023-05-10T12:53:33.352Z,100278.78
2023-05-10T12:56:00.587Z,100278.60
2023-05-10T12:58:35.454Z,100275.72
2023-05-10T13:01:03.659Z,100273.61
2023-05-10T13:03:30.797Z,100273.89
2023-05-10T13:05:58.178Z,100270.72
2023-05-10T13:08:25.374Z,100266.29
2023-05-10T13:10:52.333Z,100262.23
2023-05-10T13:13:19.436Z,100262.60
2023-05-10T13:15:46.630Z,100264.55
2023-05-10T13:18:14.177Z,100269.13
2023-05-10T13:20:41.373Z,100262.54
2023-05-10T13:23:08.624Z,100260.58
2023-05-10T13:25:35.887Z,100260.88
2023-05-10T13:28:03.720Z,100260.63
2023-05-10T13:30:31.001Z,100257.67
2023-05-10T13:32:58.053Z,100258.05
2023-05-10T13:35:25.192Z,100260.91
2023-05-10T13:37:54.543Z,100252.40
2023-05-10T13:40:21.637Z,100252.96
2023-05-10T13:42:48.841Z,100253.70
2023-05-10T13:45:16.308Z,100254.11
2023-05-10T13:47:43.487Z,100254.25
2023-05-10T13:50:11.190Z,100256.52
2023-05-10T13:52:38.700Z,100258.42
2023-05-10T13:55:06.225Z,100261.48
2023-05-10T13:57:35.570Z,100260.06
2023-05-10T14:00:03.061Z,100257.87
2023-05-10T14:02:35.137Z,100255.29
2023-05-10T14:05:02.529Z,100254.05
2023-05-10T14:07:29.769Z,100262.32
2023-05-10T14:09:56.887Z,100257.73
2023-05-10T14:12:23.928Z,100259.34
2023-05-10T14:14:51.392Z,100257.27
2023-05-10T14:17:18.545Z,100255.91
2023-05-10T14:19:45.799Z,100258.10
2023-05-10T14:22:12.916Z,100261.56
2023-05-10T14:24:39.872Z,100262.53
2023-05-10T14:27:07.173Z,100262.83
2023-05-10T14:29:34.358Z,100261.49
2023-05-10T14:32:01.566Z,100258.65
2023-05-10T14:34:28.637Z,100261.48
2023-05-10T14:36:56.305Z,100261.67
2023-05-10T14:39:23.930Z,100265.02
2023-05-10T14:41:52.546Z,100265.51
2023-05-10T14:44:19.981Z,100261.40
2023-05-10T14:46:46.941Z,100261.39
2023-05-10T14:49:13.930Z,100261.02
2023-05-10T14:51:41.054Z,100259.42
2023-05-10T14:54:08.059Z,100260.97
2023-05-10T14:56:35.207Z,100251.41
2023-05-10T14:59:02.229Z,100249.48
2023-05-10T15:01:29.772Z,100246.23
2023-05-10T15:03:57.332Z,100247.23
2023-05-10T15:06:28.104Z,100242.36
2023-05-10T15:08:55.109Z,100243.33
2023-05-10T15:11:22.623Z,100240.90
2023-05-10T15:13:49.669Z,100243.30
2023-05-10T15:16:16.714Z,100242.77
2023-05-10T15:18:43.912Z,100249.70
2023-05-10T15:21:11.259Z,100249.01
2023-05-10T15:23:38.238Z,100247.77
2023-05-10T15:26:05.222Z,100247.30
2023-05-10T15:28:33.623Z,100247.30
2023-05-10T15:31:01.621Z,100247.09
2023-05-10T15:33:28.718Z,100248.30
2023-05-10T15:35:55.972Z,100248.02
2023-05-10T15:38:23.708Z,100245.08
2023-05-10T15:40:50.686Z,100245.30
2023-05-10T15:43:18.153Z,100244.96
2023-05-10T15:45:45.416Z,100241.73
2023-05-10T15:48:12.581Z,100240.23
2023-05-10T15:50:41.572Z,100240.25
2023-05-10T15:53:08.618Z,100239.81
2023-05-10T15:55:35.898Z,100240.23
2023-05-10T15:58:03.455Z,100244.79
2023-05-10T16:00:30.638Z,100246.60
2023-05-10T16:02:57.736Z,100245.85
2023-05-10T16:05:24.963Z,100243.35
2023-05-10T16:07:52.021Z,100245.96
2023-05-10T16:10:19.167Z,100245.29
2023-05-10T16:12:47.030Z,100245.27
2023-05-10T16:15:14.215Z,100243.92
2023-05-10T16:17:41.977Z,100243.75
2023-05-10T16:20:09.755Z,100246.52
2023-05-10T16:22:37.030Z,100244.84
2023-05-10T16:25:04.412Z,100244.19
2023-05-10T16:27:33.696Z,100246.06
2023-05-10T16:30:00.878Z,100248.77
2023-05-10T16:32:28.139Z,100257.86
2023-05-10T16:34:55.605Z,100257.52
2023-05-10T16:37:22.688Z,100259.76
2023-05-10T16:39:49.727Z,100256.02
2023-05-10T16:42:17.089Z,100255.80
2023-05-10T16:44:44.170Z,100257.35
2023-05-10T16:47:11.319Z,100254.09
2023-05-10T16:49:38.457Z,100258.50
2023-05-10T16:52:05.425Z,100257.95
2023-05-10T16:54:32.516Z,100257.44
2023-05-10T16:56:59.950Z,100260.46
2023-05-10T16:59:27.334Z,100258.95
2023-05-10T17:01:55.045Z,100259.86
2023-05-10T17:04:22.144Z,100261.17
2023-05-10T17:06:49.110Z,100262.49
2023-05-10T17:09:16.177Z,100262.86
2023-05-10T17:11:43.356Z,100268.47
2023-05-10T17:14:10.481Z,100269.75
2023-05-10T17:16:37.750Z,100273.11
2023-05-10T17:19:05.220Z,100272.55
2023-05-10T17:21:32.661Z,100279.34
2023-05-10T17:23:59.826Z,100276.89
2023-05-10T17:26:27.786Z,100276.84
2023-05-10T17:28:55.097Z,100280.13
2023-05-10T17:31:22.335Z,100279.08
2023-05-10T17:33:49.497Z,100278.95
2023-05-10T17:36:16.609Z,100276.94
2023-05-10T17:38:43.615Z,100282.16
2023-05-10T17:41:10.683Z,100282.86
2023-05-10T17:43:37.691Z,100286.05
2023-05-10T17:46:04.859Z,100286.58
2023-05-10T17:48:32.348Z,100292.15
2023-05-10T17:50:59.380Z,100293.43
2023-05-10T17:53:26.370Z,100299.00
2023-05-10T17:55:54.094Z,100300.68
2023-05-10T17:58:21.160Z,100304.65
2023-05-10T18:00:48.328Z,100307.54
2023-05-10T18:03:15.645Z,100313.64
2023-05-10T18:05:42.679Z,100312.73
2023-05-10T18:08:09.946Z,100311.51
2023-05-10T18:10:40.032Z,100313.55
2023-05-10T18:13:09.049Z,100315.05
2023-05-10T18:15:36.318Z,100320.98
2023-05-10T18:18:04.608Z,100322.86
2023-05-10T18:20:32.059Z,100328.48
2023-05-10T18:22:59.326Z,100328.18
2023-05-10T18:25:26.794Z,100332.59
2023-05-10T18:27:53.946Z,100335.31
2023-05-10T18:30:20.924Z,100336.26
2023-05-10T18:32:48.117Z,100338.13
2023-05-10T18:35:15.883Z,100338.81
2023-05-10T18:37:43.037Z,100339.20
2023-05-10T18:40:11.322Z,100335.46
2023-05-10T18:42:38.347Z,100343.72
2023-05-10T18:45:06.516Z,100344.98
2023-05-10T18:49:59.034Z,100345.11
2023-05-10T18:52:26.088Z,100341.94
2023-05-10T18:54:53.416Z,100344.30
2023-05-10T18:57:21.404Z,100342.30
2023-05-10T18:59:49.216Z,100340.80
2023-05-10T19:02:16.515Z,100337.92
2023-05-10T19:04:43.774Z,100341.40
2023-05-10T19:07:11.360Z,100340.28
2023-05-10T19:09:38.372Z,100342.43
2023-05-10T19:12:05.690Z,100344.18
2023-05-10T19:14:32.989Z,100346.89
2023-05-10T19:17:00.018Z,100352.52
2023-05-10T19:19:28.062Z,100352.52
2023-05-10T19:21:54.996Z,100350.04
2023-05-10T19:24:25.166Z,100349.95
2023-05-10T19:26:52.629Z,100355.91
2023-05-10T19:29:19.695Z,100356.58
2023-05-10T19:31:47.356Z,100361.65
2023-05-10T19:34:14.464Z,100361.77
2023-05-10T19:36:41.528Z,100358.23
2023-05-10T19:39:08.625Z,100359.66
2023-05-10T19:41:35.865Z,100357.52
2023-05-10T19:44:03.032Z,100360.66
2023-05-10T19:46:31.327Z,100361.15
2023-05-10T19:48:58.537Z,100362.35
2023-05-10T19:51:25.724Z,100360.97
2023-05-10T19:53:52.876Z,100359.86
2023-05-10T19:56:19.899Z,100362.13
2023-05-10T19:58:47.015Z,100360.02
2023-05-10T20:01:14.073Z,100364.42
2023-05-10T20:03:41.681Z,100362.30
2023-05-10T20:06:09.106Z,100363.96
2023-05-10T20:08:36.173Z,100361.92
2023-05-10T20:11:04.043Z,100359.65
2023-05-10T20:13:31.106Z,100360.02
2023-05-10T20:15:58.636Z,100364.03
2023-05-10T20:18:26.827Z,100362.75
2023-05-10T20:20:58.466Z,100366.91
2023-05-10T20:23:25.820Z,100364.05
2023-05-10T20:25:53.818Z,100361.50
2023-05-10T20:28:21.454Z,100362.35
2023-05-10T20:30:52.454Z,100364.40
2023-05-10T20:33:20.973Z,100365.12
2023-05-10T20:35:47.990Z,100361.80
2023-05-10T20:38:15.164Z,100361.40
2023-05-10T20:40:42.924Z,100363.02
2023-05-10T20:43:10.109Z,100360.63
2023-05-10T20:45:37.927Z,100359.57
2023-05-10T20:48:05.069Z,100357.96
2023-05-10T20:50:32.104Z,100357.75
2023-05-10T20:53:00.736Z,100357.92
2023-05-10T20:55:28.465Z,100358.00
2023-05-10T20:57:55.454Z,100360.61
2023-05-10T21:00:22.471Z,100361.58
2023-05-10T21:02:49.730Z,100360.26
2023-05-10T21:05:17.857Z,100360.38
2023-05-10T21:07:44.979Z,100360.48
2023-05-10T21:10:12.296Z,100358.06
2023-05-10T21:12:39.332Z,100361.84
2023-05-10T21:15:06.861Z,100361.22
2023-05-10T21:17:34.169Z,100364.09
2023-05-10T21:20:01.261Z,100363.77
2023-05-10T21:22:28.280Z,100360.42
2023-05-10T21:24:55.333Z,100363.71
2023-05-10T21:27:22.351Z,100364.80
2023-05-10T21:29:49.440Z,100366.77
2023-05-10T21:32:16.756Z,100368.95
2023-05-10T21:34:44.037Z,100370.41
2023-05-10T21:37:11.119Z,100367.65
2023-05-10T21:39:38.400Z,100372.70
2023-05-10T21:42:05.461Z,100370.16
2023-05-10T21:44:32.759Z,100371.11
2023-05-10T21:46:59.754Z,100374.60
2023-05-10T21:49:27.139Z,100374.58
2023-05-10T21:51:54.134Z,100374.28
2023-05-10T21:54:21.721Z,100373.74
2023-05-10T21:56:49.256Z,100372.18
2023-05-10T21:59:16.281Z,100371.36
2023-05-10T22:01:44.088Z,100370.04
2023-05-10T22:04:11.403Z,100368.38
2023-05-10T22:06:38.764Z,100368.05
2023-05-10T22:09:05.910Z,100370.80
2023-05-10T22:11:32.942Z,100371.07
2023-05-10T22:13:59.971Z,100371.02
2023-05-10T22:16:27.052Z,100374.20
2023-05-10T22:18:54.674Z,100373.37
2023-05-10T22:21:22.109Z,100374.88
2023-05-10T22:23:49.113Z,100374.86
2023-05-10T22:26:16.105Z,100374.64
2023-05-10T22:28:43.817Z,100373.21
2023-05-10T22:31:13.993Z,100377.98
2023-05-10T22:33:40.997Z,100375.60
2023-05-10T22:36:09.380Z,100376.30
2023-05-10T22:38:36.380Z,100381.47
2023-05-10T22:41:03.784Z,100382.13
2023-05-10T22:43:30.782Z,100381.27
2023-05-10T22:45:57.773Z,100383.63
2023-05-10T22:48:24.800Z,100374.16
2023-05-10T22:50:51.883Z,100379.27
2023-05-10T22:53:18.988Z,100374.50
2023-05-10T22:55:47.244Z,100373.13
2023-05-10T22:58:14.265Z,100377.42
2023-05-10T23:00:41.410Z,100377.37
2023-05-10T23:03:08.595Z,100375.56
2023-05-10T23:05:35.927Z,100378.04
2023-05-10T23:08:03.177Z,100375.67
2023-05-10T23:10:30.119Z,100374.70
2023-05-10T23:12:57.177Z,100371.20
2023-05-10T23:15:24.350Z,100373.85
2023-05-10T23:17:51.565Z,100373.83
2023-05-10T23:20:18.929Z,100373.94
2023-05-10T23:22:46.293Z,100374.64
2023-05-10T23:25:13.242Z,100375.33
2023-05-10T23:27:40.420Z,100377.44
2023-05-10T23:30:08.574Z,100380.05
2023-05-10T23:32:36.017Z,100377.75
2023-05-10T23:35:03.507Z,100380.92
2023-05-10T23:37:30.692Z,100383.02
2023-05-10T23:39:58.204Z,100384.38
2023-05-10T23:42:25.612Z,100384.13
2023-05-10T23:44:52.798Z,100388.31
2023-05-10T23:47:19.871Z,100385.81
2023-05-10T23:49:46.993Z,100388.98
2023-05-10T23:52:14.199Z,100390.20
2023-05-10T23:54:42.603Z,100394.23
2023-05-10T23:57:10.394Z,100394.08
2023-05-10T23:59:37.448Z,100391.75
